Airfield :
LOGIN :

Register | Disclaimer

   EN    FR    IT 

 










Legend :    VFR   Marginal VFR   IFR   Intensive IFR   Very Intensive IFR
Visi :
Ceiling :
>= 8 km
>= 3000ft
5 to 8 km
1000 to 3000 ft
1500m to 5 km
500 to 1000 ft
800 to 1500m
200 to 500 ft
< 800m
< 200 ft
Symbols :   Thunderstorms  Fog  Heavy snow  Heavy precipitations  Wind > 20 kt
SIGMETs :     Misc.  Thunderstorms  Icing  Turbulence  Mountain Waves  Volcanic Ashes






- Airport Elevation : 468 ft
- IATA code : GRO


LEGE - Girona Costa Brava

CURRENT METAR :
  • 080900Z 01003KT 320V060 2000 BR OVC006 11/10 Q1009

EXPIRED METARs :
  • 080830Z 02004KT 350V050 3000 BR OVC005 11/10 Q1009
  • 080800Z 01005KT 4000 BR OVC004 11/10 Q1009
  • 080730Z 36003KT 320V040 5000 BR OVC004 11/10 Q1009
  • 080700Z 02005KT 6000 OVC005 11/10 Q1009
  • 080630Z 01005KT 8000 OVC006 11/10 Q1009

TAF TAF LEGE
Valid from the 08 at 06:00 until the 09 at 06:00 UTC


080500Z 0806/0906 VRB03KT 9999 FEW010 TX16/0813Z TN08/0806Z
TEMPO 0806/0810 2000 BR BKN004
PROB40
TEMPO 0806/0808 0300 FG VV001
BECMG 0810/0812 18008KT
PROB40
TEMPO 0814/0820 3000 SHRA FEW015TCU BKN020



MET'MAP, your aeronautical weather chart ! - Copyright ORBIFLY December 2007 - Disclaimer

ORBIFLY MET'MAP TEAM :

Programming & Development : Alexandra Zaïnal
Original concept : Baudouin d'Aumeries
Technical & hardware support : Manuel Goepfert
Assistance : Marc-Olivier Méhu




SOURCES & CREDITS :

   NOAA